sensor_id;sensor_type;location;lat;lon;timestamp;temperature;humidity
47414;DHT22;33163;0.000;0.000;2023-04-03T00:01:09;19.10;50.70
47414;DHT22;33163;0.000;0.000;2023-04-03T00:03:36;19.10;50.70
47414;DHT22;33163;0.000;0.000;2023-04-03T00:06:04;19.10;51.30
47414;DHT22;33163;0.000;0.000;2023-04-03T00:08:33;19.10;50.60
47414;DHT22;33163;0.000;0.000;2023-04-03T00:11:00;19.10;50.60
47414;DHT22;33163;0.000;0.000;2023-04-03T00:13:27;19.10;50.50
47414;DHT22;33163;0.000;0.000;2023-04-03T00:15:54;19.10;50.50
47414;DHT22;33163;0.000;0.000;2023-04-03T00:18:21;19.10;50.60
47414;DHT22;33163;0.000;0.000;2023-04-03T00:20:49;19.10;50.60
47414;DHT22;33163;0.000;0.000;2023-04-03T00:23:16;19.10;50.70
47414;DHT22;33163;0.000;0.000;2023-04-03T00:25:44;19.10;50.60
47414;DHT22;33163;0.000;0.000;2023-04-03T00:28:13;19.00;50.50
47414;DHT22;33163;0.000;0.000;2023-04-03T00:30:40;19.10;50.40
47414;DHT22;33163;0.000;0.000;2023-04-03T00:33:07;19.00;50.40
47414;DHT22;33163;0.000;0.000;2023-04-03T00:35:34;19.00;50.40
47414;DHT22;33163;0.000;0.000;2023-04-03T00:38:01;19.00;51.10
47414;DHT22;33163;0.000;0.000;2023-04-03T00:40:33;19.00;50.40
47414;DHT22;33163;0.000;0.000;2023-04-03T00:43:05;19.00;50.50
47414;DHT22;33163;0.000;0.000;2023-04-03T00:45:36;19.00;50.30
47414;DHT22;33163;0.000;0.000;2023-04-03T00:48:05;19.00;50.40
47414;DHT22;33163;0.000;0.000;2023-04-03T00:50:37;19.00;50.40
47414;DHT22;33163;0.000;0.000;2023-04-03T00:53:05;19.00;50.30
47414;DHT22;33163;0.000;0.000;2023-04-03T00:55:34;19.00;50.40
47414;DHT22;33163;0.000;0.000;2023-04-03T00:58:03;18.90;50.30
47414;DHT22;33163;0.000;0.000;2023-04-03T01:00:32;19.00;50.30
47414;DHT22;33163;0.000;0.000;2023-04-03T01:02:59;18.90;50.20
47414;DHT22;33163;0.000;0.000;2023-04-03T01:05:26;18.90;50.10
47414;DHT22;33163;0.000;0.000;2023-04-03T01:07:53;18.90;50.10
47414;DHT22;33163;0.000;0.000;2023-04-03T01:10:20;18.90;50.00
47414;DHT22;33163;0.000;0.000;2023-04-03T01:12:49;18.90;50.10
47414;DHT22;33163;0.000;0.000;2023-04-03T01:15:20;18.90;50.10
47414;DHT22;33163;0.000;0.000;2023-04-03T01:17:49;18.90;50.00
47414;DHT22;33163;0.000;0.000;2023-04-03T01:20:42;18.90;49.80
47414;DHT22;33163;0.000;0.000;2023-04-03T01:23:24;18.90;49.70
47414;DHT22;33163;0.000;0.000;2023-04-03T01:25:55;18.90;49.90
47414;DHT22;33163;0.000;0.000;2023-04-03T01:28:25;18.90;49.80
47414;DHT22;33163;0.000;0.000;2023-04-03T01:31:00;18.90;50.10
47414;DHT22;33163;0.000;0.000;2023-04-03T01:33:30;18.90;49.90
47414;DHT22;33163;0.000;0.000;2023-04-03T01:35:57;18.90;49.80
47414;DHT22;33163;0.000;0.000;2023-04-03T01:38:24;18.80;49.70
47414;DHT22;33163;0.000;0.000;2023-04-03T01:40:50;18.90;49.80
47414;DHT22;33163;0.000;0.000;2023-04-03T01:43:17;18.80;49.70
47414;DHT22;33163;0.000;0.000;2023-04-03T01:45:44;18.80;49.70
47414;DHT22;33163;0.000;0.000;2023-04-03T01:48:11;18.80;49.60
47414;DHT22;33163;0.000;0.000;2023-04-03T01:50:39;18.80;49.70
47414;DHT22;33163;0.000;0.000;2023-04-03T01:53:07;18.80;49.70
47414;DHT22;33163;0.000;0.000;2023-04-03T01:55:33;18.80;49.60
47414;DHT22;33163;0.000;0.000;2023-04-03T01:58:00;18.80;49.50
47414;DHT22;33163;0.000;0.000;2023-04-03T02:00:27;18.80;49.60
47414;DHT22;33163;0.000;0.000;2023-04-03T02:02:54;18.70;49.50
47414;DHT22;33163;0.000;0.000;2023-04-03T02:05:20;18.80;49.50
47414;DHT22;33163;0.000;0.000;2023-04-03T02:07:49;18.80;49.70
47414;DHT22;33163;0.000;0.000;2023-04-03T02:10:16;18.70;49.50
47414;DHT22;33163;0.000;0.000;2023-04-03T02:12:42;18.70;49.60
47414;DHT22;33163;0.000;0.000;2023-04-03T02:15:09;18.70;49.50
47414;DHT22;33163;0.000;0.000;2023-04-03T02:17:36;18.70;49.60
47414;DHT22;33163;0.000;0.000;2023-04-03T02:20:04;18.70;49.80
47414;DHT22;33163;0.000;0.000;2023-04-03T02:22:31;18.70;49.60
47414;DHT22;33163;0.000;0.000;2023-04-03T02:24:59;18.70;49.10
47414;DHT22;33163;0.000;0.000;2023-04-03T02:27:26;18.80;48.70
47414;DHT22;33163;0.000;0.000;2023-04-03T02:29:53;18.80;48.60
47414;DHT22;33163;0.000;0.000;2023-04-03T02:32:19;18.90;48.50
47414;DHT22;33163;0.000;0.000;2023-04-03T02:34:46;18.90;48.40
47414;DHT22;33163;0.000;0.000;2023-04-03T02:37:13;18.90;48.30
47414;DHT22;33163;0.000;0.000;2023-04-03T02:39:40;18.90;48.20
47414;DHT22;33163;0.000;0.000;2023-04-03T02:42:08;18.90;48.10
47414;DHT22;33163;0.000;0.000;2023-04-03T02:44:35;18.90;48.10
47414;DHT22;33163;0.000;0.000;2023-04-03T02:47:02;18.90;48.10
47414;DHT22;33163;0.000;0.000;2023-04-03T02:49:28;18.90;48.10
47414;DHT22;33163;0.000;0.000;2023-04-03T02:51:55;18.90;48.00
47414;DHT22;33163;0.000;0.000;2023-04-03T02:54:22;18.90;48.00
47414;DHT22;33163;0.000;0.000;2023-04-03T02:56:50;18.90;47.90
47414;DHT22;33163;0.000;0.000;2023-04-03T02:59:18;18.90;47.90
47414;DHT22;33163;0.000;0.000;2023-04-03T03:01:45;18.90;47.90
47414;DHT22;33163;0.000;0.000;2023-04-03T03:04:12;18.90;47.90
47414;DHT22;33163;0.000;0.000;2023-04-03T03:06:39;18.80;47.80
47414;DHT22;33163;0.000;0.000;2023-04-03T03:09:06;18.90;47.70
47414;DHT22;33163;0.000;0.000;2023-04-03T03:11:33;18.90;47.70
47414;DHT22;33163;0.000;0.000;2023-04-03T03:14:00;18.90;47.60
47414;DHT22;33163;0.000;0.000;2023-04-03T03:16:28;18.90;47.60
47414;DHT22;33163;0.000;0.000;2023-04-03T03:18:55;18.90;47.50
47414;DHT22;33163;0.000;0.000;2023-04-03T03:21:22;18.90;47.50
47414;DHT22;33163;0.000;0.000;2023-04-03T03:23:48;18.90;47.30
47414;DHT22;33163;0.000;0.000;2023-04-03T03:26:15;18.90;47.40
47414;DHT22;33163;0.000;0.000;2023-04-03T03:28:42;18.90;47.40
47414;DHT22;33163;0.000;0.000;2023-04-03T03:31:09;18.90;47.30
47414;DHT22;33163;0.000;0.000;2023-04-03T03:33:37;18.90;47.20
47414;DHT22;33163;0.000;0.000;2023-04-03T03:36:05;18.90;47.30
47414;DHT22;33163;0.000;0.000;2023-04-03T03:38:32;19.00;47.20
47414;DHT22;33163;0.000;0.000;2023-04-03T03:40:58;19.00;47.20
47414;DHT22;33163;0.000;0.000;2023-04-03T03:43:25;19.00;47.20
47414;DHT22;33163;0.000;0.000;2023-04-03T03:45:52;18.90;47.00
47414;DHT22;33163;0.000;0.000;2023-04-03T03:48:19;18.90;47.00
47414;DHT22;33163;0.000;0.000;2023-04-03T03:50:48;18.90;47.00
47414;DHT22;33163;0.000;0.000;2023-04-03T03:53:15;19.00;47.00
47414;DHT22;33163;0.000;0.000;2023-04-03T03:55:42;18.90;46.90
47414;DHT22;33163;0.000;0.000;2023-04-03T03:58:09;18.90;46.90
47414;DHT22;33163;0.000;0.000;2023-04-03T04:00:36;18.90;46.90
47414;DHT22;33163;0.000;0.000;2023-04-03T04:03:02;18.90;46.80
47414;DHT22;33163;0.000;0.000;2023-04-03T04:05:30;19.00;46.90
47414;DHT22;33163;0.000;0.000;2023-04-03T04:07:58;18.90;46.80
47414;DHT22;33163;0.000;0.000;2023-04-03T04:10:25;19.00;46.80
47414;DHT22;33163;0.000;0.000;2023-04-03T04:12:51;19.00;46.80
47414;DHT22;33163;0.000;0.000;2023-04-03T04:15:18;18.90;46.70
47414;DHT22;33163;0.000;0.000;2023-04-03T04:17:46;18.90;46.70
47414;DHT22;33163;0.000;0.000;2023-04-03T04:20:13;18.90;46.60
47414;DHT22;33163;0.000;0.000;2023-04-03T04:22:40;18.90;46.60
47414;DHT22;33163;0.000;0.000;2023-04-03T04:25:09;18.90;46.70
47414;DHT22;33163;0.000;0.000;2023-04-03T04:27:35;18.90;46.50
47414;DHT22;33163;0.000;0.000;2023-04-03T04:30:04;19.00;46.60
47414;DHT22;33163;0.000;0.000;2023-04-03T04:32:31;18.90;46.60
47414;DHT22;33163;0.000;0.000;2023-04-03T04:34:58;18.90;46.50
47414;DHT22;33163;0.000;0.000;2023-04-03T04:37:25;18.90;46.50
47414;DHT22;33163;0.000;0.000;2023-04-03T04:39:51;18.90;46.50
47414;DHT22;33163;0.000;0.000;2023-04-03T04:42:19;18.90;46.60
47414;DHT22;33163;0.000;0.000;2023-04-03T04:44:46;18.90;46.50
47414;DHT22;33163;0.000;0.000;2023-04-03T04:47:14;18.90;47.20
47414;DHT22;33163;0.000;0.000;2023-04-03T04:49:41;18.90;47.20
47414;DHT22;33163;0.000;0.000;2023-04-03T04:52:08;18.90;46.50
47414;DHT22;33163;0.000;0.000;2023-04-03T04:54:34;18.90;46.50
47414;DHT22;33163;0.000;0.000;2023-04-03T04:57:01;18.90;46.40
47414;DHT22;33163;0.000;0.000;2023-04-03T04:59:29;18.90;46.40
47414;DHT22;33163;0.000;0.000;2023-04-03T05:01:56;18.90;46.40
47414;DHT22;33163;0.000;0.000;2023-04-03T05:04:23;18.90;46.40
47414;DHT22;33163;0.000;0.000;2023-04-03T05:06:49;18.90;46.40
47414;DHT22;33163;0.000;0.000;2023-04-03T05:09:16;18.90;46.40
47414;DHT22;33163;0.000;0.000;2023-04-03T05:11:43;18.90;46.30
47414;DHT22;33163;0.000;0.000;2023-04-03T05:14:10;18.90;46.30
47414;DHT22;33163;0.000;0.000;2023-04-03T05:16:38;18.90;46.30
47414;DHT22;33163;0.000;0.000;2023-04-03T05:19:05;18.90;46.30
47414;DHT22;33163;0.000;0.000;2023-04-03T05:21:32;18.90;46.30
47414;DHT22;33163;0.000;0.000;2023-04-03T05:23:58;18.90;46.30
47414;DHT22;33163;0.000;0.000;2023-04-03T05:26:28;18.90;46.20
47414;DHT22;33163;0.000;0.000;2023-04-03T05:28:55;18.90;46.30
47414;DHT22;33163;0.000;0.000;2023-04-03T05:31:21;18.90;46.20
47414;DHT22;33163;0.000;0.000;2023-04-03T05:33:50;18.90;46.20
47414;DHT22;33163;0.000;0.000;2023-04-03T05:36:16;18.80;46.30
47414;DHT22;33163;0.000;0.000;2023-04-03T05:38:43;18.90;46.50
47414;DHT22;33163;0.000;0.000;2023-04-03T05:41:10;18.90;46.60
47414;DHT22;33163;0.000;0.000;2023-04-03T05:43:37;18.90;46.70
47414;DHT22;33163;0.000;0.000;2023-04-03T05:46:07;18.90;46.90
47414;DHT22;33163;0.000;0.000;2023-04-03T05:48:35;18.90;47.10
47414;DHT22;33163;0.000;0.000;2023-04-03T05:51:04;18.90;47.30
47414;DHT22;33163;0.000;0.000;2023-04-03T05:53:34;18.90;47.50
47414;DHT22;33163;0.000;0.000;2023-04-03T05:56:01;18.90;47.70
47414;DHT22;33163;0.000;0.000;2023-04-03T05:58:28;18.90;47.90
47414;DHT22;33163;0.000;0.000;2023-04-03T06:00:55;18.90;48.00
47414;DHT22;33163;0.000;0.000;2023-04-03T06:03:22;18.90;48.10
47414;DHT22;33163;0.000;0.000;2023-04-03T06:05:49;18.90;48.10
47414;DHT22;33163;0.000;0.000;2023-04-03T06:08:17;18.90;48.10
47414;DHT22;33163;0.000;0.000;2023-04-03T06:10:44;18.90;48.20
47414;DHT22;33163;0.000;0.000;2023-04-03T06:13:11;18.90;48.40
47414;DHT22;33163;0.000;0.000;2023-04-03T06:15:39;18.90;48.50
47414;DHT22;33163;0.000;0.000;2023-04-03T06:18:06;18.90;48.60
47414;DHT22;33163;0.000;0.000;2023-04-03T06:20:33;19.00;48.90
47414;DHT22;33163;0.000;0.000;2023-04-03T06:23:00;19.00;48.70
47414;DHT22;33163;0.000;0.000;2023-04-03T06:25:28;19.00;48.60
47414;DHT22;33163;0.000;0.000;2023-04-03T06:27:55;19.10;48.60
47414;DHT22;33163;0.000;0.000;2023-04-03T06:30:22;19.00;48.40
47414;DHT22;33163;0.000;0.000;2023-04-03T06:32:49;19.00;48.30
47414;DHT22;33163;0.000;0.000;2023-04-03T06:35:16;19.10;48.40
47414;DHT22;33163;0.000;0.000;2023-04-03T06:37:43;19.10;48.40
47414;DHT22;33163;0.000;0.000;2023-04-03T06:40:15;19.10;48.20
47414;DHT22;33163;0.000;0.000;2023-04-03T06:42:46;19.10;48.30
47414;DHT22;33163;0.000;0.000;2023-04-03T06:45:13;19.20;48.30
47414;DHT22;33163;0.000;0.000;2023-04-03T06:47:41;19.20;48.80
47414;DHT22;33163;0.000;0.000;2023-04-03T06:50:09;19.30;48.00
47414;DHT22;33163;0.000;0.000;2023-04-03T06:52:37;19.30;48.00
47414;DHT22;33163;0.000;0.000;2023-04-03T06:55:05;19.30;47.90
47414;DHT22;33163;0.000;0.000;2023-04-03T06:57:32;19.30;47.80
47414;DHT22;33163;0.000;0.000;2023-04-03T07:00:00;19.30;47.70
47414;DHT22;33163;0.000;0.000;2023-04-03T07:02:29;19.30;47.80
47414;DHT22;33163;0.000;0.000;2023-04-03T07:04:56;19.30;47.80
47414;DHT22;33163;0.000;0.000;2023-04-03T07:07:23;19.40;47.70
47414;DHT22;33163;0.000;0.000;2023-04-03T07:09:49;19.40;47.60
47414;DHT22;33163;0.000;0.000;2023-04-03T07:12:16;19.50;47.60
47414;DHT22;33163;0.000;0.000;2023-04-03T07:14:43;19.50;47.40
47414;DHT22;33163;0.000;0.000;2023-04-03T07:17:11;19.50;47.30
47414;DHT22;33163;0.000;0.000;2023-04-03T07:19:38;19.50;47.20
47414;DHT22;33163;0.000;0.000;2023-04-03T07:22:05;19.60;47.30
47414;DHT22;33163;0.000;0.000;2023-04-03T07:24:33;19.60;47.30
47414;DHT22;33163;0.000;0.000;2023-04-03T07:27:00;19.60;47.30
47414;DHT22;33163;0.000;0.000;2023-04-03T07:29:27;19.60;47.30
47414;DHT22;33163;0.000;0.000;2023-04-03T07:31:55;19.70;47.20
47414;DHT22;33163;0.000;0.000;2023-04-03T07:34:23;19.70;47.20
47414;DHT22;33163;0.000;0.000;2023-04-03T07:36:50;19.70;47.10
47414;DHT22;33163;0.000;0.000;2023-04-03T07:39:17;19.80;47.70
47414;DHT22;33163;0.000;0.000;2023-04-03T07:41:45;19.80;47.60
47414;DHT22;33163;0.000;0.000;2023-04-03T07:44:11;19.80;47.40
47414;DHT22;33163;0.000;0.000;2023-04-03T07:46:38;19.80;46.70
47414;DHT22;33163;0.000;0.000;2023-04-03T07:49:06;19.80;46.80
47414;DHT22;33163;0.000;0.000;2023-04-03T07:51:34;19.90;47.00
47414;DHT22;33163;0.000;0.000;2023-04-03T07:54:01;19.90;47.20
47414;DHT22;33163;0.000;0.000;2023-04-03T07:56:28;19.90;47.30
47414;DHT22;33163;0.000;0.000;2023-04-03T07:58:55;19.90;47.30
47414;DHT22;33163;0.000;0.000;2023-04-03T08:01:21;19.90;47.40
47414;DHT22;33163;0.000;0.000;2023-04-03T08:03:48;19.80;47.50
47414;DHT22;33163;0.000;0.000;2023-04-03T08:06:16;19.80;47.60
47414;DHT22;33163;0.000;0.000;2023-04-03T08:08:44;19.80;47.80
47414;DHT22;33163;0.000;0.000;2023-04-03T08:11:11;19.80;47.80
47414;DHT22;33163;0.000;0.000;2023-04-03T08:13:38;19.70;47.80
47414;DHT22;33163;0.000;0.000;2023-04-03T08:16:09;19.70;47.90
47414;DHT22;33163;0.000;0.000;2023-04-03T08:18:36;19.80;48.00
47414;DHT22;33163;0.000;0.000;2023-04-03T08:21:06;19.80;48.00
47414;DHT22;33163;0.000;0.000;2023-04-03T08:23:33;19.70;48.10
47414;DHT22;33163;0.000;0.000;2023-04-03T08:26:07;19.80;48.30
47414;DHT22;33163;0.000;0.000;2023-04-03T08:28:34;19.80;48.30
47414;DHT22;33163;0.000;0.000;2023-04-03T08:31:05;19.80;48.20
47414;DHT22;33163;0.000;0.000;2023-04-03T08:33:32;19.80;48.30
47414;DHT22;33163;0.000;0.000;2023-04-03T08:35:59;19.80;48.20
47414;DHT22;33163;0.000;0.000;2023-04-03T08:38:26;19.90;48.30
47414;DHT22;33163;0.000;0.000;2023-04-03T08:41:01;19.90;48.30
47414;DHT22;33163;0.000;0.000;2023-04-03T08:43:36;19.90;48.50
47414;DHT22;33163;0.000;0.000;2023-04-03T08:46:11;20.00;48.50
47414;DHT22;33163;0.000;0.000;2023-04-03T08:48:41;20.00;48.60
47414;DHT22;33163;0.000;0.000;2023-04-03T08:51:12;20.00;48.60
47414;DHT22;33163;0.000;0.000;2023-04-03T08:53:42;20.00;48.50
47414;DHT22;33163;0.000;0.000;2023-04-03T08:56:11;20.10;48.50
47414;DHT22;33163;0.000;0.000;2023-04-03T08:58:46;20.10;48.50
47414;DHT22;33163;0.000;0.000;2023-04-03T09:01:19;20.10;48.60
47414;DHT22;33163;0.000;0.000;2023-04-03T09:03:47;20.20;48.50
47414;DHT22;33163;0.000;0.000;2023-04-03T09:06:15;20.20;48.40
47414;DHT22;33163;0.000;0.000;2023-04-03T09:08:48;20.20;48.40
47414;DHT22;33163;0.000;0.000;2023-04-03T09:11:20;20.20;48.40
47414;DHT22;33163;0.000;0.000;2023-04-03T09:13:54;20.30;48.50
47414;DHT22;33163;0.000;0.000;2023-04-03T09:16:30;20.30;48.40
47414;DHT22;33163;0.000;0.000;2023-04-03T09:19:07;20.30;48.30
47414;DHT22;33163;0.000;0.000;2023-04-03T09:21:39;20.40;48.30
47414;DHT22;33163;0.000;0.000;2023-04-03T09:24:09;20.40;48.40
47414;DHT22;33163;0.000;0.000;2023-04-03T09:26:42;20.40;48.30
47414;DHT22;33163;0.000;0.000;2023-04-03T09:29:16;20.40;48.40
47414;DHT22;33163;0.000;0.000;2023-04-03T09:31:44;20.50;48.40
47414;DHT22;33163;0.000;0.000;2023-04-03T09:34:18;20.50;48.40
47414;DHT22;33163;0.000;0.000;2023-04-03T09:36:47;20.50;48.40
47414;DHT22;33163;0.000;0.000;2023-04-03T09:39:16;20.50;48.40
47414;DHT22;33163;0.000;0.000;2023-04-03T09:41:58;20.50;48.30
47414;DHT22;33163;0.000;0.000;2023-04-03T09:44:28;20.50;48.30
47414;DHT22;33163;0.000;0.000;2023-04-03T09:46:55;20.60;48.30
47414;DHT22;33163;0.000;0.000;2023-04-03T09:49:22;20.60;48.20
47414;DHT22;33163;0.000;0.000;2023-04-03T09:51:49;20.60;48.20
47414;DHT22;33163;0.000;0.000;2023-04-03T09:54:36;20.60;48.20
47414;DHT22;33163;0.000;0.000;2023-04-03T09:57:08;20.60;48.20
47414;DHT22;33163;0.000;0.000;2023-04-03T09:59:41;20.70;48.30
47414;DHT22;33163;0.000;0.000;2023-04-03T10:02:22;20.70;48.10
47414;DHT22;33163;0.000;0.000;2023-04-03T10:04:50;20.70;47.90
47414;DHT22;33163;0.000;0.000;2023-04-03T10:07:32;20.70;47.90
47414;DHT22;33163;0.000;0.000;2023-04-03T10:10:02;20.80;48.00
47414;DHT22;33163;0.000;0.000;2023-04-03T10:12:29;20.80;47.90
47414;DHT22;33163;0.000;0.000;2023-04-03T10:14:58;20.80;48.00
47414;DHT22;33163;0.000;0.000;2023-04-03T10:17:35;20.80;47.90
47414;DHT22;33163;0.000;0.000;2023-04-03T10:20:14;20.90;47.90
47414;DHT22;33163;0.000;0.000;2023-04-03T10:22:53;20.90;47.80
47414;DHT22;33163;0.000;0.000;2023-04-03T10:25:26;20.90;47.80
47414;DHT22;33163;0.000;0.000;2023-04-03T10:27:58;21.00;47.80
47414;DHT22;33163;0.000;0.000;2023-04-03T10:30:33;21.00;47.70
47414;DHT22;33163;0.000;0.000;2023-04-03T10:33:18;21.00;47.70
47414;DHT22;33163;0.000;0.000;2023-04-03T10:35:57;21.00;47.70
47414;DHT22;33163;0.000;0.000;2023-04-03T10:38:33;21.10;47.60
47414;DHT22;33163;0.000;0.000;2023-04-03T10:41:07;21.20;47.60
47414;DHT22;33163;0.000;0.000;2023-04-03T10:43:43;21.20;47.60
47414;DHT22;33163;0.000;0.000;2023-04-03T10:46:15;21.20;47.50
47414;DHT22;33163;0.000;0.000;2023-04-03T10:48:53;21.30;47.50
47414;DHT22;33163;0.000;0.000;2023-04-03T10:51:29;21.30;47.30
47414;DHT22;33163;0.000;0.000;2023-04-03T10:54:02;21.30;47.40
47414;DHT22;33163;0.000;0.000;2023-04-03T10:56:35;21.30;47.10
47414;DHT22;33163;0.000;0.000;2023-04-03T10:59:16;21.40;47.20
47414;DHT22;33163;0.000;0.000;2023-04-03T11:01:48;21.40;47.10
47414;DHT22;33163;0.000;0.000;2023-04-03T11:04:17;21.40;47.00
47414;DHT22;33163;0.000;0.000;2023-04-03T11:06:49;21.40;47.00
47414;DHT22;33163;0.000;0.000;2023-04-03T11:09:21;21.50;46.90
47414;DHT22;33163;0.000;0.000;2023-04-03T11:11:53;21.40;46.90
47414;DHT22;33163;0.000;0.000;2023-04-03T11:14:26;21.50;46.90
47414;DHT22;33163;0.000;0.000;2023-04-03T11:17:05;21.60;46.80
47414;DHT22;33163;0.000;0.000;2023-04-03T11:19:39;21.50;46.60
47414;DHT22;33163;0.000;0.000;2023-04-03T11:22:13;21.50;46.70
47414;DHT22;33163;0.000;0.000;2023-04-03T11:24:43;21.60;46.70
47414;DHT22;33163;0.000;0.000;2023-04-03T11:27:17;21.60;46.80
47414;DHT22;33163;0.000;0.000;2023-04-03T11:29:48;21.60;46.70
47414;DHT22;33163;0.000;0.000;2023-04-03T11:32:34;21.60;46.70
47414;DHT22;33163;0.000;0.000;2023-04-03T11:35:08;21.60;46.70
47414;DHT22;33163;0.000;0.000;2023-04-03T11:37:39;21.60;46.60
47414;DHT22;33163;0.000;0.000;2023-04-03T11:40:19;21.60;46.60
47414;DHT22;33163;0.000;0.000;2023-04-03T11:42:49;21.60;46.70
47414;DHT22;33163;0.000;0.000;2023-04-03T11:45:31;21.60;47.30
47414;DHT22;33163;0.000;0.000;2023-04-03T11:48:02;21.60;46.60
47414;DHT22;33163;0.000;0.000;2023-04-03T11:50:41;21.70;46.50
47414;DHT22;33163;0.000;0.000;2023-04-03T11:53:41;21.70;46.50
47414;DHT22;33163;0.000;0.000;2023-04-03T11:56:35;21.70;46.40
47414;DHT22;33163;0.000;0.000;2023-04-03T11:59:23;21.70;46.30
47414;DHT22;33163;0.000;0.000;2023-04-03T12:01:51;21.80;46.20
47414;DHT22;33163;0.000;0.000;2023-04-03T12:04:21;21.70;46.20
47414;DHT22;33163;0.000;0.000;2023-04-03T12:07:12;21.80;46.20
47414;DHT22;33163;0.000;0.000;2023-04-03T12:10:02;21.80;46.00
47414;DHT22;33163;0.000;0.000;2023-04-03T12:12:32;21.80;45.90
47414;DHT22;33163;0.000;0.000;2023-04-03T12:15:19;21.80;45.90
47414;DHT22;33163;0.000;0.000;2023-04-03T12:17:47;21.80;45.80
47414;DHT22;33163;0.000;0.000;2023-04-03T12:23:28;21.80;45.60
47414;DHT22;33163;0.000;0.000;2023-04-03T12:26:05;21.90;45.80
47414;DHT22;33163;0.000;0.000;2023-04-03T12:28:37;21.90;45.50
47414;DHT22;33163;0.000;0.000;2023-04-03T12:31:08;21.90;45.60
47414;DHT22;33163;0.000;0.000;2023-04-03T12:33:47;21.90;45.40
47414;DHT22;33163;0.000;0.000;2023-04-03T12:36:28;21.90;45.40
47414;DHT22;33163;0.000;0.000;2023-04-03T12:39:36;21.90;45.30
47414;DHT22;33163;0.000;0.000;2023-04-03T12:42:31;21.90;45.30
47414;DHT22;33163;0.000;0.000;2023-04-03T12:45:13;21.90;45.00
47414;DHT22;33163;0.000;0.000;2023-04-03T12:47:44;22.00;45.10
47414;DHT22;33163;0.000;0.000;2023-04-03T12:50:21;21.90;45.00
47414;DHT22;33163;0.000;0.000;2023-04-03T12:52:54;22.00;44.90
47414;DHT22;33163;0.000;0.000;2023-04-03T12:55:24;22.00;45.00
47414;DHT22;33163;0.000;0.000;2023-04-03T12:57:52;22.00;45.00
47414;DHT22;33163;0.000;0.000;2023-04-03T13:00:28;22.00;45.00
47414;DHT22;33163;0.000;0.000;2023-04-03T13:02:56;21.90;44.70
47414;DHT22;33163;0.000;0.000;2023-04-03T13:05:23;22.00;44.90
47414;DHT22;33163;0.000;0.000;2023-04-03T13:07:57;22.00;44.80
47414;DHT22;33163;0.000;0.000;2023-04-03T13:10:26;22.00;44.70
47414;DHT22;33163;0.000;0.000;2023-04-03T13:12:54;22.00;44.60
47414;DHT22;33163;0.000;0.000;2023-04-03T13:15:23;22.00;44.40
47414;DHT22;33163;0.000;0.000;2023-04-03T13:17:50;22.00;44.50
47414;DHT22;33163;0.000;0.000;2023-04-03T13:20:22;22.00;44.30
47414;DHT22;33163;0.000;0.000;2023-04-03T13:22:54;22.00;44.20
47414;DHT22;33163;0.000;0.000;2023-04-03T13:25:25;22.00;44.20
47414;DHT22;33163;0.000;0.000;2023-04-03T13:27:54;22.00;44.00
47414;DHT22;33163;0.000;0.000;2023-04-03T13:30:26;22.10;43.70
47414;DHT22;33163;0.000;0.000;2023-04-03T13:32:54;22.10;43.90
47414;DHT22;33163;0.000;0.000;2023-04-03T13:35:27;22.00;43.80
47414;DHT22;33163;0.000;0.000;2023-04-03T13:37:56;22.00;43.60
47414;DHT22;33163;0.000;0.000;2023-04-03T13:40:23;22.00;43.60
47414;DHT22;33163;0.000;0.000;2023-04-03T13:43:01;22.00;43.70
47414;DHT22;33163;0.000;0.000;2023-04-03T13:45:30;21.90;43.50
47414;DHT22;33163;0.000;0.000;2023-04-03T13:48:10;21.90;43.90
47414;DHT22;33163;0.000;0.000;2023-04-03T13:50:52;21.90;44.00
47414;DHT22;33163;0.000;0.000;2023-04-03T13:53:20;21.80;44.00
47414;DHT22;33163;0.000;0.000;2023-04-03T13:55:57;21.80;44.00
47414;DHT22;33163;0.000;0.000;2023-04-03T13:58:26;21.80;44.10
47414;DHT22;33163;0.000;0.000;2023-04-03T14:00:55;21.70;44.20
47414;DHT22;33163;0.000;0.000;2023-04-03T14:03:24;21.70;44.10
47414;DHT22;33163;0.000;0.000;2023-04-03T14:05:52;21.60;44.00
47414;DHT22;33163;0.000;0.000;2023-04-03T14:08:19;21.60;44.00
47414;DHT22;33163;0.000;0.000;2023-04-03T14:10:47;21.60;44.00
47414;DHT22;33163;0.000;0.000;2023-04-03T14:13:17;21.50;44.40
47414;DHT22;33163;0.000;0.000;2023-04-03T14:15:47;21.50;44.00
47414;DHT22;33163;0.000;0.000;2023-04-03T14:18:18;21.40;44.00
47414;DHT22;33163;0.000;0.000;2023-04-03T14:20:45;21.50;44.10
47414;DHT22;33163;0.000;0.000;2023-04-03T14:23:12;21.40;44.00
47414;DHT22;33163;0.000;0.000;2023-04-03T14:25:39;21.40;44.10
47414;DHT22;33163;0.000;0.000;2023-04-03T14:28:15;21.40;43.70
47414;DHT22;33163;0.000;0.000;2023-04-03T14:30:42;21.40;43.80
47414;DHT22;33163;0.000;0.000;2023-04-03T14:33:13;21.30;43.80
47414;DHT22;33163;0.000;0.000;2023-04-03T14:35:41;21.30;43.90
47414;DHT22;33163;0.000;0.000;2023-04-03T14:38:21;21.30;43.90
47414;DHT22;33163;0.000;0.000;2023-04-03T14:40:49;21.30;44.00
47414;DHT22;33163;0.000;0.000;2023-04-03T14:43:16;21.20;43.80
47414;DHT22;33163;0.000;0.000;2023-04-03T14:45:43;21.20;43.80
47414;DHT22;33163;0.000;0.000;2023-04-03T14:48:16;21.20;43.90
47414;DHT22;33163;0.000;0.000;2023-04-03T14:50:44;21.20;43.80
47414;DHT22;33163;0.000;0.000;2023-04-03T14:53:12;21.20;43.80
47414;DHT22;33163;0.000;0.000;2023-04-03T14:55:40;21.10;43.80
47414;DHT22;33163;0.000;0.000;2023-04-03T14:58:11;21.10;43.70
47414;DHT22;33163;0.000;0.000;2023-04-03T15:00:38;21.10;43.80
47414;DHT22;33163;0.000;0.000;2023-04-03T15:03:05;21.00;43.70
47414;DHT22;33163;0.000;0.000;2023-04-03T15:05:35;21.10;43.50
47414;DHT22;33163;0.000;0.000;2023-04-03T15:08:02;21.00;43.50
47414;DHT22;33163;0.000;0.000;2023-04-03T15:10:30;21.00;43.60
47414;DHT22;33163;0.000;0.000;2023-04-03T15:12:58;21.00;43.40
47414;DHT22;33163;0.000;0.000;2023-04-03T15:15:28;20.90;43.30
47414;DHT22;33163;0.000;0.000;2023-04-03T15:17:56;20.90;43.50
47414;DHT22;33163;0.000;0.000;2023-04-03T15:20:25;20.90;43.40
47414;DHT22;33163;0.000;0.000;2023-04-03T15:22:54;20.90;43.60
47414;DHT22;33163;0.000;0.000;2023-04-03T15:25:22;20.80;43.60
47414;DHT22;33163;0.000;0.000;2023-04-03T15:27:49;20.80;43.20
47414;DHT22;33163;0.000;0.000;2023-04-03T15:30:17;20.80;43.40
47414;DHT22;33163;0.000;0.000;2023-04-03T15:32:46;20.80;43.40
47414;DHT22;33163;0.000;0.000;2023-04-03T15:35:13;20.80;43.50
47414;DHT22;33163;0.000;0.000;2023-04-03T15:37:40;20.80;43.20
47414;DHT22;33163;0.000;0.000;2023-04-03T15:40:09;20.80;43.50
47414;DHT22;33163;0.000;0.000;2023-04-03T15:42:36;20.70;43.20
47414;DHT22;33163;0.000;0.000;2023-04-03T15:45:04;20.70;43.20
47414;DHT22;33163;0.000;0.000;2023-04-03T15:47:31;20.70;43.50
47414;DHT22;33163;0.000;0.000;2023-04-03T15:49:59;20.70;43.70
47414;DHT22;33163;0.000;0.000;2023-04-03T15:52:26;20.70;43.50
47414;DHT22;33163;0.000;0.000;2023-04-03T15:54:52;20.70;43.40
47414;DHT22;33163;0.000;0.000;2023-04-03T15:57:20;20.60;43.30
47414;DHT22;33163;0.000;0.000;2023-04-03T15:59:51;20.70;43.00
47414;DHT22;33163;0.000;0.000;2023-04-03T16:02:18;20.60;43.30
47414;DHT22;33163;0.000;0.000;2023-04-03T16:04:45;20.60;43.50